createdAt,value
2018-06-05T00:00:24.557Z,18.20
2018-06-05T00:02:53.092Z,18.20
2018-06-05T00:07:49.814Z,17.90
2018-06-05T00:10:18.367Z,17.80
2018-06-05T00:12:46.917Z,17.70
2018-06-05T00:15:15.450Z,17.80
2018-06-05T00:17:43.983Z,17.90
2018-06-05T00:20:12.481Z,18.00
2018-06-05T00:22:41.113Z,17.80
2018-06-05T00:25:09.572Z,17.80
2018-06-05T00:27:38.100Z,17.80
2018-06-05T00:30:06.582Z,17.90
2018-06-05T00:32:35.093Z,17.70
2018-06-05T00:35:03.629Z,17.70
2018-06-05T00:37:32.187Z,17.70
2018-06-05T00:42:28.877Z,17.60
2018-06-05T00:44:57.378Z,17.70
2018-06-05T00:47:26.585Z,17.80
2018-06-05T00:49:55.085Z,17.60
2018-06-05T00:52:23.645Z,17.80
2018-06-05T00:54:52.173Z,17.40
2018-06-05T00:57:20.771Z,17.60
2018-06-05T00:59:49.296Z,17.70
2018-06-05T01:02:17.838Z,17.60
2018-06-05T01:04:46.377Z,17.60
2018-06-05T01:07:15.042Z,17.60
2018-06-05T01:09:43.562Z,17.70
2018-06-05T01:12:12.086Z,17.40
2018-06-05T01:14:40.634Z,17.40
2018-06-05T01:17:09.141Z,17.50
2018-06-05T01:19:37.677Z,17.60
2018-06-05T01:22:06.286Z,17.50
2018-06-05T01:24:34.802Z,17.50
2018-06-05T01:27:03.338Z,17.70
2018-06-05T01:29:31.843Z,17.60
2018-06-05T01:32:00.397Z,17.70
2018-06-05T01:34:28.955Z,17.60
2018-06-05T01:36:57.428Z,17.50
2018-06-05T01:39:26.000Z,17.50
2018-06-05T01:41:54.506Z,17.50
2018-06-05T01:44:23.840Z,17.50
2018-06-05T01:46:52.421Z,17.30
2018-06-05T01:49:20.996Z,17.10
2018-06-05T01:51:49.594Z,17.20
2018-06-05T01:54:19.081Z,17.30
2018-06-05T01:56:47.693Z,17.30
2018-06-05T01:59:16.379Z,17.20
2018-06-05T02:01:44.932Z,17.00
2018-06-05T02:04:14.197Z,16.90
2018-06-05T02:06:43.010Z,17.10
2018-06-05T02:09:11.560Z,17.10
2018-06-05T02:11:40.580Z,17.30
2018-06-05T02:14:09.113Z,17.20
2018-06-05T02:16:37.662Z,17.30
2018-06-05T02:19:06.823Z,17.20
2018-06-05T02:21:35.357Z,17.20
2018-06-05T02:24:03.963Z,17.20
2018-06-05T02:26:32.489Z,17.10
2018-06-05T02:29:00.994Z,16.90
2018-06-05T02:31:29.509Z,16.70
2018-06-05T02:33:58.821Z,16.70
2018-06-05T02:36:28.100Z,16.90
2018-06-05T02:38:57.039Z,17.10
2018-06-05T02:41:26.219Z,16.90
2018-06-05T02:43:55.413Z,17.00
2018-06-05T02:46:24.686Z,17.00
2018-06-05T02:51:22.691Z,17.10
2018-06-05T02:53:51.940Z,16.90
2018-06-05T02:56:21.251Z,16.60
2018-06-05T02:58:50.227Z,16.50
2018-06-05T03:01:19.161Z,16.60
2018-06-05T03:03:48.341Z,16.70
2018-06-05T03:06:18.040Z,16.80
2018-06-05T03:08:47.404Z,17.00
2018-06-05T03:11:17.413Z,16.80
2018-06-05T03:13:46.457Z,16.70
2018-06-05T03:16:14.992Z,16.90
2018-06-05T03:18:43.506Z,16.90
2018-06-05T03:21:12.053Z,16.90
2018-06-05T03:23:40.619Z,17.10
2018-06-05T03:26:09.193Z,17.20
2018-06-05T03:28:37.734Z,17.20
2018-06-05T03:33:34.474Z,17.00
2018-06-05T03:36:03.008Z,17.20
2018-06-05T03:38:32.261Z,17.20
2018-06-05T03:41:00.807Z,17.10
2018-06-05T03:43:29.341Z,17.20
2018-06-05T03:45:57.927Z,17.20
2018-06-05T03:48:26.530Z,17.20
2018-06-05T03:50:55.095Z,17.20
2018-06-05T03:53:23.670Z,17.20
2018-06-05T03:55:52.232Z,17.20
2018-06-05T03:58:20.798Z,17.40
2018-06-05T04:00:49.653Z,17.20
2018-06-05T04:03:18.188Z,17.00
2018-06-05T04:05:46.751Z,17.00
2018-06-05T04:08:15.327Z,17.00
2018-06-05T04:10:43.870Z,16.90
2018-06-05T04:13:12.567Z,17.00
2018-06-05T04:15:41.124Z,17.00
2018-06-05T04:18:09.708Z,17.00
2018-06-05T04:20:38.254Z,17.00
2018-06-05T04:23:06.809Z,16.70
2018-06-05T04:25:35.287Z,16.60
2018-06-05T04:28:03.861Z,16.70
2018-06-05T04:30:32.352Z,16.60
2018-06-05T04:33:00.893Z,16.60
2018-06-05T04:35:29.439Z,16.50
2018-06-05T04:37:57.988Z,16.50
2018-06-05T04:40:26.948Z,16.50
2018-06-05T04:42:55.500Z,16.50
2018-06-05T04:45:24.000Z,16.60
2018-06-05T04:47:52.576Z,16.60
2018-06-05T04:50:21.152Z,16.30
2018-06-05T04:52:49.774Z,16.40
2018-06-05T04:55:18.317Z,16.30
2018-06-05T04:57:46.912Z,16.40
2018-06-05T05:00:15.420Z,16.30
2018-06-05T05:02:44.959Z,16.20
2018-06-05T05:05:13.468Z,16.40
2018-06-05T05:07:41.976Z,16.20
2018-06-05T05:10:10.541Z,16.20
2018-06-05T05:12:39.057Z,16.30
2018-06-05T05:15:07.655Z,16.10
2018-06-05T05:17:36.355Z,16.30
2018-06-05T05:20:05.094Z,16.20
2018-06-05T05:25:01.800Z,16.10
2018-06-05T05:27:30.301Z,16.30
2018-06-05T05:29:58.891Z,16.40
2018-06-05T05:32:27.456Z,16.50
2018-06-05T05:34:55.961Z,16.50
2018-06-05T05:37:24.536Z,16.50
2018-06-05T05:39:53.067Z,16.40
2018-06-05T05:42:21.689Z,16.30
2018-06-05T05:44:50.193Z,16.50
2018-06-05T05:47:19.325Z,16.20
2018-06-05T05:49:47.819Z,16.40
2018-06-05T05:52:16.333Z,16.50
2018-06-05T05:54:45.623Z,16.50
2018-06-05T05:57:14.085Z,16.70
2018-06-05T05:59:42.641Z,16.60
2018-06-05T06:02:11.183Z,16.60
2018-06-05T06:04:39.866Z,16.90
2018-06-05T06:07:09.482Z,16.90
2018-06-05T06:09:37.982Z,16.80
2018-06-05T06:14:34.895Z,17.00
2018-06-05T06:17:03.537Z,16.90
2018-06-05T06:19:32.116Z,17.10
2018-06-05T06:22:00.856Z,17.10
2018-06-05T06:24:29.549Z,17.00
2018-06-05T06:26:58.134Z,17.00
2018-06-05T06:29:26.744Z,16.90
2018-06-05T06:31:56.244Z,16.80
2018-06-05T06:34:24.910Z,16.90
2018-06-05T06:36:53.804Z,16.90
2018-06-05T06:39:22.426Z,16.90
2018-06-05T06:41:51.070Z,17.00
2018-06-05T06:44:19.561Z,16.90
2018-06-05T06:46:48.131Z,16.90
2018-06-05T06:49:16.688Z,17.10
2018-06-05T06:51:45.232Z,17.10
2018-06-05T06:54:13.947Z,16.90
2018-06-05T06:56:42.458Z,17.00
2018-06-05T06:59:11.024Z,17.00
2018-06-05T07:01:39.624Z,17.00
2018-06-05T07:04:08.461Z,16.90
2018-06-05T07:06:37.119Z,16.90
2018-06-05T07:09:08.128Z,17.00
2018-06-05T07:11:36.934Z,17.20
2018-06-05T07:14:05.563Z,17.00
2018-06-05T07:19:27.258Z,17.20
2018-06-05T07:21:55.866Z,17.30
2018-06-05T07:24:24.465Z,17.20
2018-06-05T07:26:53.005Z,17.20
2018-06-05T07:29:21.582Z,17.10
2018-06-05T07:31:50.162Z,16.90
2018-06-05T07:34:18.690Z,17.00
2018-06-05T07:36:47.314Z,17.10
2018-06-05T07:39:15.895Z,17.10
2018-06-05T07:41:45.457Z,17.20
2018-06-05T07:44:13.987Z,17.40
2018-06-05T07:49:10.631Z,17.70
2018-06-05T07:51:39.238Z,17.80
2018-06-05T07:54:07.772Z,17.80
2018-06-05T07:56:36.344Z,17.70
2018-06-05T07:59:04.788Z,17.70
2018-06-05T08:01:33.572Z,17.60
2018-06-05T08:04:02.157Z,17.50
2018-06-05T08:06:30.669Z,17.60
2018-06-05T08:08:59.187Z,17.50
2018-06-05T08:11:27.739Z,17.70
2018-06-05T08:13:56.355Z,17.90
2018-06-05T08:16:24.884Z,17.90
2018-06-05T08:18:53.396Z,17.70
2018-06-05T08:21:21.944Z,17.70
2018-06-05T08:23:50.554Z,17.60
2018-06-05T08:26:27.004Z,17.60
2018-06-05T08:28:55.683Z,17.70
2018-06-05T08:31:25.027Z,17.80
2018-06-05T08:33:53.644Z,17.70
2018-06-05T08:36:22.195Z,17.60
2018-06-05T08:38:50.766Z,17.50
2018-06-05T08:41:19.889Z,17.60
2018-06-05T08:43:48.469Z,17.60
2018-06-05T08:46:17.005Z,17.50
2018-06-05T08:48:45.928Z,17.50
2018-06-05T08:51:14.445Z,17.60
2018-06-05T08:53:42.926Z,17.50
2018-06-05T08:56:11.456Z,17.50
2018-06-05T08:58:40.030Z,17.60
2018-06-05T09:01:08.533Z,17.60
2018-06-05T09:03:37.039Z,17.80
2018-06-05T09:06:05.896Z,17.80
2018-06-05T09:08:34.405Z,17.80
2018-06-05T09:11:02.952Z,18.00
2018-06-05T09:13:31.465Z,17.90
2018-06-05T09:15:59.998Z,18.00
2018-06-05T09:18:28.507Z,18.10
2018-06-05T09:20:57.023Z,18.10
2018-06-05T09:23:25.554Z,17.80
2018-06-05T09:25:54.459Z,17.90
2018-06-05T09:28:23.189Z,18.00
2018-06-05T09:30:52.393Z,17.90
2018-06-05T09:33:34.083Z,17.70
2018-06-05T09:36:02.609Z,17.60
2018-06-05T09:38:32.187Z,17.60
2018-06-05T09:41:00.778Z,17.70
2018-06-05T09:43:29.326Z,17.60
2018-06-05T09:45:58.145Z,17.80
2018-06-05T09:48:26.955Z,17.90
2018-06-05T09:50:55.488Z,17.90
2018-06-05T09:53:24.123Z,18.00
2018-06-05T09:55:52.735Z,17.90
2018-06-05T09:58:21.401Z,17.80
2018-06-05T10:00:52.517Z,17.90
2018-06-05T10:03:21.893Z,17.80
2018-06-05T10:05:50.510Z,17.80
2018-06-05T10:08:19.122Z,17.50
2018-06-05T10:10:47.940Z,17.70
2018-06-05T10:13:17.331Z,17.60
2018-06-05T10:15:46.203Z,17.80
2018-06-05T10:18:14.759Z,17.80
2018-06-05T10:23:11.901Z,17.50
2018-06-05T10:25:40.451Z,17.60
2018-06-05T10:28:09.356Z,17.60
2018-06-05T10:30:37.901Z,17.70
2018-06-05T10:33:06.720Z,17.90
2018-06-05T10:35:35.246Z,17.90
2018-06-05T10:38:03.787Z,17.90
2018-06-05T10:40:32.277Z,18.10
2018-06-05T10:43:00.743Z,18.30
2018-06-05T10:47:58.018Z,18.40
2018-06-05T10:50:27.043Z,18.30
2018-06-05T10:52:55.658Z,18.30
2018-06-05T10:55:24.208Z,18.00
2018-06-05T10:57:52.813Z,18.10
2018-06-05T11:00:21.520Z,18.20
2018-06-05T11:02:50.073Z,18.50
2018-06-05T11:05:18.762Z,18.20
2018-06-05T11:07:47.426Z,18.20
2018-06-05T11:10:16.263Z,18.10
2018-06-05T11:12:45.207Z,18.20
2018-06-05T11:15:13.705Z,18.30
2018-06-05T11:17:42.690Z,18.20
2018-06-05T11:20:14.499Z,18.30
2018-06-05T11:22:43.120Z,18.40
2018-06-05T11:25:11.638Z,18.30
2018-06-05T11:27:40.210Z,18.30
2018-06-05T11:30:08.953Z,18.30
2018-06-05T11:32:37.509Z,18.50
2018-06-05T11:37:34.706Z,18.80
2018-06-05T11:40:03.248Z,18.90
2018-06-05T11:42:31.850Z,18.80
2018-06-05T11:45:00.749Z,18.70
2018-06-05T11:49:57.734Z,18.50
2018-06-05T11:52:26.344Z,18.80
2018-06-05T11:54:55.079Z,18.80
2018-06-05T11:57:23.738Z,19.00
2018-06-05T11:59:52.613Z,18.90
2018-06-05T12:02:21.476Z,19.00
2018-06-05T12:04:50.077Z,19.10
2018-06-05T12:07:19.105Z,19.30
2018-06-05T12:09:47.624Z,19.30
2018-06-05T12:12:16.186Z,19.40
2018-06-05T12:14:44.757Z,19.30
2018-06-05T12:17:13.724Z,19.10
2018-06-05T12:19:42.240Z,19.00
2018-06-05T12:22:10.792Z,19.00
2018-06-05T12:24:39.416Z,19.20
2018-06-05T12:27:11.045Z,19.30
2018-06-05T12:29:39.528Z,19.30
2018-06-05T12:32:08.096Z,19.30
2018-06-05T12:34:37.036Z,19.00
2018-06-05T12:37:05.728Z,19.10
2018-06-05T12:39:34.631Z,19.20
2018-06-05T12:42:03.168Z,18.90
2018-06-05T12:44:31.750Z,19.10
2018-06-05T12:47:00.641Z,19.40
2018-06-05T12:49:41.570Z,19.20
2018-06-05T12:52:10.155Z,19.30
2018-06-05T12:54:38.708Z,19.30
2018-06-05T12:57:07.511Z,19.50
2018-06-05T12:59:36.061Z,19.40
2018-06-05T13:02:04.684Z,19.40
2018-06-05T13:04:33.312Z,19.30
2018-06-05T13:07:01.800Z,19.40
2018-06-05T13:09:30.550Z,19.40
2018-06-05T13:12:06.619Z,19.50
2018-06-05T13:14:35.194Z,19.50
2018-06-05T13:17:03.755Z,19.40
2018-06-05T13:19:32.292Z,19.60
2018-06-05T13:22:00.848Z,19.60
2018-06-05T13:27:03.584Z,19.40
2018-06-05T13:29:32.554Z,19.90
2018-06-05T13:32:01.175Z,20.30
2018-06-05T13:34:31.142Z,20.90
2018-06-05T13:37:00.017Z,21.00
2018-06-05T13:39:28.569Z,20.50
2018-06-05T13:41:57.121Z,20.30
2018-06-05T13:46:54.240Z,20.50
2018-06-05T13:49:22.777Z,20.80
2018-06-05T13:57:16.914Z,21.20
2018-06-05T13:59:45.464Z,21.20
2018-06-05T14:02:13.987Z,21.20
2018-06-05T14:04:42.458Z,21.40
2018-06-05T14:07:11.027Z,21.40
2018-06-05T14:09:39.565Z,21.40
2018-06-05T14:12:08.072Z,21.50
2018-06-05T14:14:36.572Z,21.30
2018-06-05T14:17:05.168Z,21.40
2018-06-05T14:19:40.336Z,21.50
2018-06-05T14:22:08.953Z,21.40
2018-06-05T14:24:38.063Z,21.60
2018-06-05T14:27:06.320Z,21.80
2018-06-05T14:29:34.903Z,21.80
2018-06-05T14:32:03.462Z,21.90
2018-06-05T14:34:32.026Z,21.80
2018-06-05T14:37:00.800Z,21.70
2018-06-05T14:39:29.672Z,21.70
2018-06-05T14:42:05.666Z,21.70
2018-06-05T14:44:34.222Z,22.00
2018-06-05T14:47:03.026Z,21.90
2018-06-05T14:49:31.884Z,21.70
2018-06-05T14:52:00.570Z,21.90
2018-06-05T14:54:29.157Z,22.10
2018-06-05T14:56:58.212Z,21.90
2018-06-05T14:59:26.860Z,21.80
2018-06-05T15:01:55.360Z,21.90
2018-06-05T15:04:30.720Z,21.80
2018-06-05T15:06:59.361Z,21.50
2018-06-05T15:09:29.035Z,21.50
2018-06-05T15:11:57.581Z,21.50
2018-06-05T15:14:26.397Z,21.70
2018-06-05T15:16:54.937Z,21.70
2018-06-05T15:19:23.452Z,21.70
2018-06-05T15:21:51.940Z,21.60
2018-06-05T15:24:20.430Z,21.60
2018-06-05T15:26:49.087Z,21.70
2018-06-05T15:29:18.077Z,22.00
2018-06-05T15:34:15.255Z,22.00
2018-06-05T15:36:43.821Z,22.20
2018-06-05T15:39:12.674Z,22.10
2018-06-05T15:41:41.304Z,22.20
2018-06-05T15:44:09.828Z,22.00
2018-06-05T15:46:38.389Z,21.90
2018-06-05T15:49:07.003Z,22.10
2018-06-05T15:51:35.505Z,22.10
2018-06-05T15:54:04.070Z,22.00
2018-06-05T15:56:32.596Z,21.80
2018-06-05T15:59:01.188Z,21.70
2018-06-05T16:01:29.996Z,21.60
2018-06-05T16:03:58.570Z,21.70
2018-06-05T16:06:27.113Z,21.60
2018-06-05T16:08:55.649Z,21.60
2018-06-05T16:11:24.164Z,21.50
2018-06-05T16:13:53.116Z,21.70
2018-06-05T16:16:22.515Z,21.90
2018-06-05T16:18:51.072Z,22.00
2018-06-05T16:21:19.778Z,21.90
2018-06-05T16:23:48.388Z,22.00
2018-06-05T16:26:17.440Z,22.00
2018-06-05T16:28:45.923Z,22.10
2018-06-05T16:31:14.769Z,22.10
2018-06-05T16:33:43.305Z,22.20
2018-06-05T16:36:12.184Z,22.00
2018-06-05T16:38:40.813Z,22.10
2018-06-05T16:41:09.332Z,22.00
2018-06-05T16:43:37.884Z,22.00
2018-06-05T16:46:06.456Z,21.90
2018-06-05T16:48:34.976Z,22.10
2018-06-05T16:51:03.484Z,22.10
2018-06-05T16:53:32.079Z,22.20
2018-06-05T16:56:00.699Z,21.90
2018-06-05T16:58:29.651Z,22.00
2018-06-05T17:00:58.215Z,22.00
2018-06-05T17:03:27.142Z,22.10
2018-06-05T17:05:55.743Z,22.20
2018-06-05T17:08:24.562Z,22.20
2018-06-05T17:10:53.436Z,22.30
2018-06-05T17:13:21.961Z,22.30
2018-06-05T17:15:50.645Z,22.20
2018-06-05T17:18:19.159Z,22.20
2018-06-05T17:20:48.005Z,22.10
2018-06-05T17:23:16.544Z,22.30
2018-06-05T17:25:45.276Z,22.20
2018-06-05T17:28:13.780Z,22.10
2018-06-05T17:30:42.383Z,22.00
2018-06-05T17:33:11.281Z,21.90
2018-06-05T17:35:39.849Z,21.80
2018-06-05T17:38:08.401Z,21.90
2018-06-05T17:40:38.143Z,21.90
2018-06-05T17:43:06.724Z,21.90
2018-06-05T17:45:35.341Z,22.00
2018-06-05T17:48:04.431Z,21.90
2018-06-05T17:50:33.256Z,21.90
2018-06-05T17:53:01.776Z,21.90
2018-06-05T17:55:30.496Z,21.90
2018-06-05T17:57:59.427Z,21.80
2018-06-05T18:00:28.217Z,21.70
2018-06-05T18:02:56.759Z,21.70
2018-06-05T18:05:25.333Z,21.70
2018-06-05T18:07:53.862Z,21.80
2018-06-05T18:10:23.043Z,21.70
2018-06-05T18:12:51.806Z,21.70
2018-06-05T18:15:20.402Z,21.60
2018-06-05T18:20:17.603Z,21.30
2018-06-05T18:22:46.173Z,21.30
2018-06-05T18:25:15.593Z,21.20
2018-06-05T18:27:44.145Z,21.10
2018-06-05T18:30:12.752Z,21.10
2018-06-05T18:37:37.802Z,20.80
2018-06-05T18:40:07.670Z,20.70
2018-06-05T18:42:36.263Z,20.70
2018-06-05T18:45:05.431Z,20.70
2018-06-05T18:47:33.941Z,20.80
2018-06-05T18:50:02.481Z,20.70
2018-06-05T18:52:31.015Z,20.70
2018-06-05T18:54:59.570Z,20.80
2018-06-05T18:57:28.498Z,20.60
2018-06-05T18:59:57.077Z,20.50
2018-06-05T19:02:25.962Z,20.50
2018-06-05T19:04:55.228Z,20.50
2018-06-05T19:07:23.926Z,20.50
2018-06-05T19:09:52.631Z,20.60
2018-06-05T19:12:21.887Z,20.60
2018-06-05T19:14:50.442Z,20.40
2018-06-05T19:17:19.023Z,20.20
2018-06-05T19:19:47.594Z,20.10
2018-06-05T19:22:16.204Z,20.10
2018-06-05T19:24:45.072Z,20.10
2018-06-05T19:27:14.779Z,19.90
2018-06-05T19:29:43.539Z,19.80
2018-06-05T19:32:13.713Z,19.90
2018-06-05T19:34:42.282Z,19.70
2018-06-05T19:37:11.549Z,19.70
2018-06-05T19:42:08.480Z,19.40
2018-06-05T19:44:36.927Z,19.50
2018-06-05T19:47:05.868Z,19.50
2018-06-05T19:49:34.745Z,19.40
2018-06-05T19:52:03.568Z,19.50
2018-06-05T19:57:00.414Z,19.30
2018-06-05T19:59:28.969Z,19.20
2018-06-05T20:01:57.584Z,19.10
2018-06-05T20:04:26.433Z,19.30
2018-06-05T20:06:54.965Z,19.10
2018-06-05T20:09:23.544Z,19.00
2018-06-05T20:11:52.094Z,18.90
2018-06-05T20:14:20.609Z,18.80
2018-06-05T20:16:49.302Z,18.70
2018-06-05T20:19:17.784Z,18.70
2018-06-05T20:21:46.314Z,18.40
2018-06-05T20:24:14.947Z,18.60
2018-06-05T20:26:43.428Z,18.40
2018-06-05T20:29:12.018Z,18.60
2018-06-05T20:31:40.527Z,18.40
2018-06-05T20:34:09.083Z,18.30
2018-06-05T20:36:37.599Z,18.30
2018-06-05T20:39:08.617Z,18.20
2018-06-05T20:41:37.333Z,18.20
2018-06-05T20:44:06.185Z,18.10
2018-06-05T20:46:34.725Z,18.00
2018-06-05T20:49:03.402Z,18.00
2018-06-05T20:51:31.928Z,17.90
2018-06-05T20:54:00.522Z,17.90
2018-06-05T20:56:29.372Z,17.90
2018-06-05T20:58:57.952Z,17.90
2018-06-05T21:01:26.444Z,17.80
2018-06-05T21:03:54.961Z,17.60
2018-06-05T21:06:23.587Z,17.60
2018-06-05T21:08:52.157Z,17.60
2018-06-05T21:11:20.639Z,17.60
2018-06-05T21:13:49.254Z,17.60
2018-06-05T21:16:17.880Z,17.60
2018-06-05T21:18:46.670Z,17.50
2018-06-05T21:21:15.214Z,17.50
2018-06-05T21:23:43.737Z,17.40
2018-06-05T21:26:12.345Z,17.30
2018-06-05T21:28:41.140Z,17.30
2018-06-05T21:31:09.577Z,17.30
2018-06-05T21:33:38.197Z,17.30
2018-06-05T21:36:06.700Z,17.10
2018-06-05T21:38:35.271Z,17.20
2018-06-05T21:41:04.088Z,17.20
2018-06-05T21:43:32.652Z,17.20
2018-06-05T21:46:01.171Z,17.20
2018-06-05T21:48:29.957Z,17.20
2018-06-05T21:50:59.149Z,17.00
2018-06-05T21:53:27.934Z,16.90
2018-06-05T21:55:56.429Z,16.90
2018-06-05T21:58:25.020Z,17.00
2018-06-05T22:00:53.523Z,17.00
2018-06-05T22:03:22.039Z,16.90
2018-06-05T22:05:50.611Z,16.90
2018-06-05T22:13:15.694Z,17.00
2018-06-05T22:15:44.376Z,17.00
2018-06-05T22:18:13.011Z,17.00
2018-06-05T22:20:41.768Z,17.00
2018-06-05T22:23:10.544Z,17.00
2018-06-05T22:25:39.133Z,16.90
2018-06-05T22:28:07.672Z,16.90
2018-06-05T22:30:36.191Z,17.00
2018-06-05T22:33:04.686Z,17.10
2018-06-05T22:35:33.195Z,17.10
2018-06-05T22:38:02.633Z,17.00
2018-06-05T22:40:31.111Z,17.00
2018-06-05T22:42:59.668Z,17.10
2018-06-05T22:45:28.243Z,17.00
2018-06-05T22:47:56.935Z,16.90
2018-06-05T22:50:25.464Z,16.80
2018-06-05T22:52:54.052Z,16.90
2018-06-05T22:55:22.611Z,17.00
2018-06-05T22:57:51.152Z,16.90
2018-06-05T23:00:24.756Z,16.90
2018-06-05T23:02:53.275Z,16.70
2018-06-05T23:05:21.791Z,16.80
2018-06-05T23:07:50.393Z,16.90
2018-06-05T23:10:18.978Z,17.00
2018-06-05T23:12:47.500Z,17.00
2018-06-05T23:17:44.258Z,16.90
2018-06-05T23:20:12.795Z,17.00
2018-06-05T23:22:41.263Z,16.90
2018-06-05T23:25:09.786Z,16.70
2018-06-05T23:27:38.312Z,16.80
2018-06-05T23:30:06.798Z,16.70
2018-06-05T23:32:35.281Z,16.60
2018-06-05T23:35:04.029Z,16.50
2018-06-05T23:37:32.544Z,16.60
2018-06-05T23:40:01.026Z,16.50
2018-06-05T23:42:29.590Z,16.40
2018-06-05T23:44:58.051Z,16.30
2018-06-05T23:47:26.573Z,16.40
2018-06-05T23:49:55.052Z,16.30
2018-06-05T23:52:23.597Z,16.20
2018-06-05T23:54:52.065Z,16.20
2018-06-05T23:57:20.578Z,16.30
2018-06-05T23:59:49.056Z,16.20
